createdAt,value
2022-09-25T00:00:16.630Z,75.83
2022-09-25T00:01:11.261Z,75.84
2022-09-25T00:01:50.365Z,75.86
2022-09-25T00:02:23.609Z,75.82
2022-09-25T00:02:56.971Z,75.88
2022-09-25T00:03:31.155Z,75.97
2022-09-25T00:04:04.445Z,75.89
2022-09-25T00:04:37.851Z,76.01
2022-09-25T00:05:10.983Z,76.15
2022-09-25T00:05:46.196Z,76.14
2022-09-25T00:06:24.555Z,76.05
2022-09-25T00:06:57.714Z,76.12
2022-09-25T00:07:31.002Z,76.12
2022-09-25T00:08:05.514Z,76.07
2022-09-25T00:08:38.757Z,76.16
2022-09-25T00:09:14.955Z,75.97
2022-09-25T00:09:48.149Z,76.27
2022-09-25T00:10:21.385Z,76.12
2022-09-25T00:10:54.711Z,76.15
2022-09-25T00:11:31.900Z,76.20
2022-09-25T00:12:05.219Z,76.07
2022-09-25T00:12:38.726Z,76.20
2022-09-25T00:13:12.123Z,76.00
2022-09-25T00:13:46.638Z,76.16
2022-09-25T00:14:19.717Z,76.02
2022-09-25T00:14:53.799Z,76.06
2022-09-25T00:15:27.182Z,76.05
2022-09-25T00:16:00.698Z,76.02
2022-09-25T00:16:33.865Z,76.00
2022-09-25T00:17:07.111Z,76.19
2022-09-25T00:17:40.535Z,76.05
2022-09-25T00:18:13.712Z,76.11
2022-09-25T00:19:05.911Z,76.27
2022-09-25T00:19:51.063Z,76.03
2022-09-25T00:20:24.337Z,76.25
2022-09-25T00:21:05.233Z,76.11
2022-09-25T00:21:38.629Z,76.08
2022-09-25T00:22:12.102Z,76.00
2022-09-25T00:22:45.250Z,75.95
2022-09-25T00:23:18.312Z,76.28
2022-09-25T00:23:51.598Z,76.18
2022-09-25T00:24:24.718Z,76.08
2022-09-25T00:24:58.290Z,76.20
2022-09-25T00:25:31.388Z,76.11
2022-09-25T00:26:08.484Z,76.14
2022-09-25T00:26:43.319Z,76.16
2022-09-25T00:27:18.511Z,76.24
2022-09-25T00:27:53.615Z,76.36
2022-09-25T00:28:29.874Z,76.11
2022-09-25T00:29:04.313Z,76.10
2022-09-25T00:29:40.410Z,76.25
2022-09-25T00:30:14.677Z,76.24
2022-09-25T00:30:47.796Z,76.35
2022-09-25T00:31:25.759Z,76.22
2022-09-25T00:31:58.933Z,76.34
2022-09-25T00:32:32.068Z,76.32
2022-09-25T00:33:05.225Z,76.34
2022-09-25T00:33:38.316Z,76.32
2022-09-25T00:34:11.976Z,76.34
2022-09-25T00:34:45.278Z,76.25
2022-09-25T00:35:18.532Z,76.23
2022-09-25T00:35:51.613Z,76.28
2022-09-25T00:36:25.429Z,76.40
2022-09-25T00:36:58.681Z,76.20
2022-09-25T00:37:35.171Z,76.29
2022-09-25T00:38:08.347Z,76.09
2022-09-25T00:38:41.524Z,76.04
2022-09-25T00:39:14.680Z,76.24
2022-09-25T00:39:48.028Z,76.23
2022-09-25T00:40:21.225Z,76.39
2022-09-25T00:40:55.968Z,76.32
2022-09-25T00:41:34.149Z,76.32
2022-09-25T00:42:07.645Z,76.32
2022-09-25T00:42:41.357Z,76.29
2022-09-25T00:43:35.278Z,76.23
2022-09-25T00:44:47.369Z,76.15
2022-09-25T00:45:21.496Z,76.29
2022-09-25T00:45:54.861Z,76.24
2022-09-25T00:46:27.978Z,76.29
2022-09-25T00:47:01.334Z,76.24
2022-09-25T00:47:37.365Z,76.30
2022-09-25T00:48:15.928Z,76.15
2022-09-25T00:49:01.128Z,76.35
2022-09-25T00:49:34.191Z,76.27
2022-09-25T00:50:19.563Z,76.27
2022-09-25T00:50:57.015Z,76.22
2022-09-25T00:51:55.519Z,76.25
2022-09-25T00:52:30.182Z,76.27
2022-09-25T00:53:15.181Z,76.33
2022-09-25T00:53:50.266Z,76.35
2022-09-25T00:54:28.521Z,76.29
2022-09-25T00:55:07.792Z,76.33
2022-09-25T00:55:44.637Z,76.29
2022-09-25T00:56:18.203Z,76.23
2022-09-25T00:56:52.975Z,76.26
2022-09-25T00:57:30.895Z,76.22
2022-09-25T00:58:06.006Z,76.18
2022-09-25T00:58:41.316Z,76.38
2022-09-25T00:59:21.273Z,76.40
2022-09-25T01:00:01.116Z,76.42
2022-09-25T01:00:35.214Z,76.38
2022-09-25T01:01:09.823Z,76.41
2022-09-25T01:01:43.122Z,76.52
2022-09-25T01:02:39.906Z,76.43
2022-09-25T01:03:13.786Z,76.39
2022-09-25T01:03:47.436Z,76.32
2022-09-25T01:04:22.981Z,76.49
2022-09-25T01:05:00.534Z,76.41
2022-09-25T01:05:37.986Z,76.47
2022-09-25T01:06:13.046Z,76.48
2022-09-25T01:06:46.261Z,76.53
2022-09-25T01:07:20.550Z,76.37
2022-09-25T01:07:57.428Z,76.47
2022-09-25T01:08:32.821Z,76.48
2022-09-25T01:09:06.584Z,76.53
2022-09-25T01:09:40.613Z,76.63
2022-09-25T01:10:14.878Z,76.68
2022-09-25T01:10:48.278Z,76.64
2022-09-25T01:11:21.466Z,76.66
2022-09-25T01:11:54.995Z,76.61
2022-09-25T01:12:28.321Z,76.63
2022-09-25T01:13:01.726Z,76.53
2022-09-25T01:13:35.598Z,76.61
2022-09-25T01:14:10.595Z,76.60
2022-09-25T01:14:44.266Z,76.53
2022-09-25T01:15:20.786Z,76.58
2022-09-25T01:15:53.975Z,76.73
2022-09-25T01:16:54.724Z,76.63
2022-09-25T01:17:35.777Z,76.47
2022-09-25T01:18:22.044Z,76.51
2022-09-25T01:19:11.442Z,76.51
2022-09-25T01:20:10.820Z,76.62
2022-09-25T01:20:46.651Z,76.60
2022-09-25T01:21:44.992Z,76.58
2022-09-25T01:22:41.201Z,76.74
2022-09-25T01:23:37.932Z,76.58
2022-09-25T01:24:20.265Z,76.62
2022-09-25T01:25:35.087Z,76.73
2022-09-25T01:26:37.135Z,76.67
2022-09-25T01:27:32.435Z,76.71
2022-09-25T01:28:13.390Z,76.50
2022-09-25T01:29:02.897Z,76.61
2022-09-25T01:29:48.763Z,76.68
2022-09-25T01:30:22.251Z,76.50
2022-09-25T01:31:03.217Z,76.51
2022-09-25T01:31:55.162Z,76.59
2022-09-25T01:32:57.817Z,76.42
2022-09-25T01:33:55.570Z,76.59
2022-09-25T01:34:40.433Z,76.56
2022-09-25T01:35:47.906Z,76.57
2022-09-25T01:36:30.061Z,76.61
2022-09-25T01:37:19.248Z,76.67
2022-09-25T01:37:52.357Z,76.64
2022-09-25T01:38:41.886Z,76.75
2022-09-25T01:39:30.019Z,76.74
2022-09-25T01:40:08.111Z,76.57
2022-09-25T01:40:47.406Z,76.83
2022-09-25T01:41:58.082Z,76.76
2022-09-25T01:42:39.995Z,76.80
2022-09-25T01:43:18.450Z,76.84
2022-09-25T01:44:28.422Z,76.88
2022-09-25T01:45:09.759Z,76.87
2022-09-25T01:45:50.714Z,76.88
2022-09-25T01:46:29.242Z,76.84
2022-09-25T01:47:15.284Z,76.78
2022-09-25T01:47:50.856Z,76.83
2022-09-25T01:48:28.134Z,76.75
2022-09-25T01:49:08.921Z,76.85
2022-09-25T01:49:49.742Z,76.88
2022-09-25T01:50:33.429Z,76.84
2022-09-25T01:51:28.802Z,76.87
2022-09-25T01:52:07.514Z,76.86
2022-09-25T01:52:49.460Z,76.98
2022-09-25T01:53:28.741Z,76.99
2022-09-25T01:54:12.558Z,76.99
2022-09-25T01:54:52.256Z,76.99
2022-09-25T01:55:40.998Z,77.02
2022-09-25T01:56:33.200Z,77.00
2022-09-25T01:57:19.699Z,77.06
2022-09-25T01:58:08.277Z,77.05
2022-09-25T01:58:47.950Z,77.06
2022-09-25T01:59:44.375Z,76.98
2022-09-25T02:00:23.716Z,76.98
2022-09-25T02:01:05.945Z,77.07
2022-09-25T02:01:42.784Z,76.94
2022-09-25T02:02:24.194Z,76.98
2022-09-25T02:03:07.747Z,76.97
2022-09-25T02:03:47.658Z,76.98
2022-09-25T02:04:26.582Z,77.00
2022-09-25T02:05:07.896Z,77.03
2022-09-25T02:05:47.005Z,76.99
2022-09-25T02:06:21.704Z,77.13
2022-09-25T02:06:59.233Z,77.23
2022-09-25T02:07:39.843Z,77.18
2022-09-25T02:08:24.593Z,77.35
2022-09-25T02:09:20.043Z,77.18
2022-09-25T02:10:01.535Z,77.24
2022-09-25T02:10:38.243Z,77.25
2022-09-25T02:11:12.835Z,77.19
2022-09-25T02:11:51.488Z,77.22
2022-09-25T02:12:31.470Z,77.29
2022-09-25T02:13:15.913Z,77.36
2022-09-25T02:13:58.325Z,77.16
2022-09-25T02:14:46.845Z,77.20
2022-09-25T02:15:19.820Z,77.16
2022-09-25T02:16:12.332Z,77.26
2022-09-25T02:16:49.395Z,77.13
2022-09-25T02:17:48.528Z,77.17
2022-09-25T02:18:41.144Z,77.31
2022-09-25T02:19:35.957Z,77.23
2022-09-25T02:20:28.290Z,77.22
2022-09-25T02:21:13.847Z,77.19
2022-09-25T02:21:50.944Z,77.33
2022-09-25T02:22:35.461Z,77.36
2022-09-25T02:23:19.012Z,77.39
2022-09-25T02:24:21.291Z,77.23
2022-09-25T02:25:13.094Z,77.21
2022-09-25T02:26:06.335Z,77.23
2022-09-25T02:26:39.573Z,77.25
2022-09-25T02:27:13.095Z,77.09
2022-09-25T02:27:46.764Z,77.22
2022-09-25T02:28:19.872Z,77.26
2022-09-25T02:28:54.402Z,77.26
2022-09-25T02:29:27.975Z,77.30
2022-09-25T02:30:01.734Z,77.13
2022-09-25T02:30:35.785Z,77.36
2022-09-25T02:31:12.786Z,77.30
2022-09-25T02:31:49.345Z,77.19
2022-09-25T02:32:28.987Z,77.35
2022-09-25T02:33:02.409Z,77.34
2022-09-25T02:33:36.066Z,77.34
2022-09-25T02:34:14.794Z,77.27
2022-09-25T02:34:48.630Z,77.28
2022-09-25T02:35:21.847Z,77.30
2022-09-25T02:35:55.064Z,77.25
2022-09-25T02:36:28.121Z,77.23
2022-09-25T02:37:01.468Z,77.35
2022-09-25T02:37:34.879Z,77.25
2022-09-25T02:38:08.896Z,77.23
2022-09-25T02:38:42.316Z,77.21
2022-09-25T02:39:21.668Z,77.23
2022-09-25T02:40:00.899Z,77.32
2022-09-25T02:40:45.451Z,77.24
2022-09-25T02:41:30.497Z,77.10
2022-09-25T02:42:26.606Z,77.20
2022-09-25T02:43:03.680Z,77.15
2022-09-25T02:44:02.444Z,77.15
2022-09-25T02:45:06.575Z,77.14
2022-09-25T02:45:49.587Z,77.24
2022-09-25T02:47:01.228Z,77.26
2022-09-25T02:47:56.250Z,77.03
2022-09-25T02:48:36.854Z,77.00
2022-09-25T02:49:27.119Z,77.15
2022-09-25T02:50:09.135Z,76.90
2022-09-25T02:50:52.749Z,76.98
2022-09-25T02:51:51.240Z,76.91
2022-09-25T02:52:45.631Z,76.95
2022-09-25T02:53:41.053Z,77.07
2022-09-25T02:54:22.815Z,76.98
2022-09-25T02:55:32.186Z,76.88
2022-09-25T02:56:13.819Z,76.88
2022-09-25T02:57:05.011Z,76.85
2022-09-25T02:57:44.408Z,76.95
2022-09-25T02:58:20.791Z,76.93
2022-09-25T02:59:02.815Z,76.98
2022-09-25T02:59:42.440Z,76.90
2022-09-25T03:00:15.966Z,76.99
2022-09-25T03:00:52.714Z,77.00
2022-09-25T03:01:29.322Z,76.87
2022-09-25T03:02:04.080Z,76.92
2022-09-25T03:02:39.610Z,76.85
2022-09-25T03:03:17.113Z,77.00
2022-09-25T03:03:54.056Z,76.93
2022-09-25T03:04:29.794Z,76.92
2022-09-25T03:05:05.983Z,76.94
2022-09-25T03:05:40.203Z,76.99
2022-09-25T03:06:13.615Z,76.91
2022-09-25T03:06:47.717Z,76.79
2022-09-25T03:07:21.559Z,76.78
2022-09-25T03:08:13.709Z,76.88
2022-09-25T03:08:53.158Z,76.77
2022-09-25T03:09:27.762Z,76.74
2022-09-25T03:10:00.987Z,76.82
2022-09-25T03:10:37.466Z,76.71
2022-09-25T03:11:17.171Z,76.66
2022-09-25T03:11:50.305Z,76.80
2022-09-25T03:12:23.370Z,76.62
2022-09-25T03:12:56.449Z,76.73
2022-09-25T03:13:34.417Z,76.71
2022-09-25T03:14:07.556Z,76.65
2022-09-25T03:14:41.342Z,76.65
2022-09-25T03:15:14.497Z,76.84
2022-09-25T03:15:53.450Z,76.69
2022-09-25T03:16:40.786Z,76.60
2022-09-25T03:17:18.002Z,76.65
2022-09-25T03:17:52.715Z,76.55
2022-09-25T03:18:26.889Z,76.58
2022-09-25T03:19:00.825Z,76.46
2022-09-25T03:19:35.215Z,76.42
2022-09-25T03:20:10.192Z,76.57
2022-09-25T03:20:43.638Z,76.40
2022-09-25T03:21:17.053Z,76.38
2022-09-25T03:21:51.379Z,76.51
2022-09-25T03:22:24.597Z,76.44
2022-09-25T03:22:57.831Z,76.54
2022-09-25T03:23:32.671Z,76.49
2022-09-25T03:24:06.617Z,76.50
2022-09-25T03:24:39.745Z,76.54
2022-09-25T03:25:13.524Z,76.58
2022-09-25T03:25:50.354Z,76.53
2022-09-25T03:26:27.944Z,76.55
2022-09-25T03:27:01.013Z,76.49
2022-09-25T03:27:34.194Z,76.46
2022-09-25T03:28:12.057Z,76.53
2022-09-25T03:28:47.610Z,76.52
2022-09-25T03:29:22.144Z,76.51
2022-09-25T03:29:55.585Z,76.35
2022-09-25T03:30:29.607Z,76.43
2022-09-25T03:31:12.303Z,76.32
2022-09-25T03:31:45.790Z,76.33
2022-09-25T03:32:19.070Z,76.29
2022-09-25T03:32:52.032Z,76.41
2022-09-25T03:33:26.219Z,76.39
2022-09-25T03:33:59.468Z,76.24
2022-09-25T03:34:32.408Z,76.29
2022-09-25T03:35:06.049Z,76.32
2022-09-25T03:35:40.302Z,76.35
2022-09-25T03:36:22.028Z,76.23
2022-09-25T03:36:55.241Z,76.19
2022-09-25T03:37:28.232Z,76.20
2022-09-25T03:38:01.385Z,76.16
2022-09-25T03:38:34.669Z,76.13
2022-09-25T03:39:10.981Z,76.11
2022-09-25T03:39:44.085Z,76.32
2022-09-25T03:40:17.334Z,76.17
2022-09-25T03:40:50.704Z,76.22
2022-09-25T03:41:24.091Z,76.24
2022-09-25T03:41:57.382Z,76.16
2022-09-25T03:42:31.835Z,76.14
2022-09-25T03:43:39.377Z,76.16
2022-09-25T03:44:12.979Z,76.08
2022-09-25T03:44:46.381Z,76.13
2022-09-25T03:45:20.176Z,76.10
2022-09-25T03:45:53.517Z,76.09
2022-09-25T03:46:29.679Z,76.14
2022-09-25T03:47:02.977Z,76.07
2022-09-25T03:47:36.141Z,76.17
2022-09-25T03:48:09.222Z,76.09
2022-09-25T03:48:42.971Z,76.12
2022-09-25T03:49:16.225Z,76.18
2022-09-25T03:49:49.283Z,76.14
2022-09-25T03:50:22.559Z,76.03
2022-09-25T03:50:56.518Z,76.02
2022-09-25T03:51:31.400Z,76.02
2022-09-25T03:52:04.506Z,75.93
2022-09-25T03:52:37.654Z,76.04
2022-09-25T03:53:10.953Z,75.97
2022-09-25T03:53:44.076Z,76.00
2022-09-25T03:54:17.399Z,75.91
2022-09-25T03:54:50.428Z,75.90
2022-09-25T03:55:23.525Z,75.86
2022-09-25T03:55:56.770Z,75.84
2022-09-25T03:56:30.529Z,75.80
2022-09-25T03:57:03.671Z,75.82
2022-09-25T03:57:36.866Z,75.79
2022-09-25T03:58:10.691Z,75.81
2022-09-25T03:58:44.195Z,75.90
2022-09-25T03:59:17.204Z,75.85
2022-09-25T03:59:50.423Z,75.93
2022-09-25T04:00:24.330Z,75.93
2022-09-25T04:00:57.629Z,76.07
2022-09-25T04:01:31.012Z,75.83
2022-09-25T04:02:04.158Z,75.86
2022-09-25T04:02:37.451Z,75.79
2022-09-25T04:03:10.717Z,75.87
2022-09-25T04:03:47.590Z,75.95
2022-09-25T04:04:20.844Z,75.82
2022-09-25T04:04:55.383Z,75.97
2022-09-25T04:05:28.474Z,75.88
2022-09-25T04:06:04.997Z,75.96
2022-09-25T04:06:38.095Z,75.80
2022-09-25T04:07:11.728Z,75.93
2022-09-25T04:07:44.843Z,75.97
2022-09-25T04:08:17.989Z,76.02
2022-09-25T04:08:51.587Z,75.94
2022-09-25T04:09:24.768Z,75.85
2022-09-25T04:09:57.970Z,75.93
2022-09-25T04:10:32.276Z,76.00
2022-09-25T04:11:06.136Z,75.87
2022-09-25T04:11:39.262Z,75.82
2022-09-25T04:12:12.665Z,75.77
2022-09-25T04:12:45.737Z,75.95
2022-09-25T04:13:19.902Z,75.81
2022-09-25T04:13:53.147Z,75.84
2022-09-25T04:14:26.279Z,75.85
2022-09-25T04:14:59.390Z,75.76
2022-09-25T04:15:33.944Z,75.62
2022-09-25T04:16:08.484Z,75.60
2022-09-25T04:16:42.278Z,75.66
2022-09-25T04:17:15.459Z,75.63
2022-09-25T04:17:48.713Z,75.69
2022-09-25T04:18:22.120Z,75.65
2022-09-25T04:18:55.387Z,75.71
2022-09-25T04:19:28.646Z,75.70
2022-09-25T04:20:02.548Z,75.65
2022-09-25T04:20:36.158Z,75.58
2022-09-25T04:21:12.847Z,75.71
2022-09-25T04:21:46.045Z,75.68
2022-09-25T04:22:19.142Z,75.72
2022-09-25T04:22:52.264Z,75.72
2022-09-25T04:23:25.485Z,75.66
2022-09-25T04:24:17.528Z,75.74
2022-09-25T04:24:50.648Z,75.70
2022-09-25T04:25:25.854Z,75.75
2022-09-25T04:25:59.276Z,75.68
2022-09-25T04:26:32.792Z,75.64
2022-09-25T04:27:06.273Z,75.57
2022-09-25T04:27:39.475Z,75.59
2022-09-25T04:28:12.968Z,75.68
2022-09-25T04:28:46.466Z,75.63
2022-09-25T04:29:21.389Z,75.61
2022-09-25T04:29:55.322Z,75.71
2022-09-25T04:30:30.175Z,75.67
2022-09-25T04:31:04.101Z,75.83
2022-09-25T04:31:37.426Z,75.71
2022-09-25T04:32:29.349Z,75.80
2022-09-25T04:33:21.062Z,75.71
2022-09-25T04:33:54.360Z,75.87
2022-09-25T04:34:27.396Z,75.77
2022-09-25T04:35:00.682Z,75.78
2022-09-25T04:35:34.324Z,75.77
2022-09-25T04:36:07.872Z,75.89
2022-09-25T04:36:41.699Z,75.89
2022-09-25T04:37:15.826Z,75.89
2022-09-25T04:37:49.352Z,75.79
2022-09-25T04:38:22.727Z,75.83
2022-09-25T04:38:55.936Z,75.85
2022-09-25T04:39:29.024Z,75.87
2022-09-25T04:40:02.436Z,75.77
2022-09-25T04:40:36.342Z,75.87
2022-09-25T04:41:09.582Z,75.78
2022-09-25T04:41:43.675Z,75.73
2022-09-25T04:42:16.784Z,75.77
2022-09-25T04:42:55.178Z,75.86
2022-09-25T04:43:29.849Z,75.89
2022-09-25T04:44:05.637Z,75.87
2022-09-25T04:44:38.831Z,75.89
2022-09-25T04:45:12.228Z,75.97
2022-09-25T04:45:47.536Z,75.98
2022-09-25T04:46:22.585Z,76.04
2022-09-25T04:46:56.022Z,76.06
2022-09-25T04:47:30.319Z,75.95
2022-09-25T04:48:04.947Z,76.04
2022-09-25T04:48:38.181Z,75.95
2022-09-25T04:49:11.265Z,76.04
2022-09-25T04:49:44.439Z,75.80
2022-09-25T04:50:17.506Z,75.87
2022-09-25T04:50:52.099Z,75.91
2022-09-25T04:51:25.340Z,75.87
2022-09-25T04:51:59.252Z,75.87
2022-09-25T04:52:32.407Z,75.91
2022-09-25T04:53:05.510Z,75.95
2022-09-25T04:53:39.420Z,75.90
2022-09-25T04:54:14.501Z,75.93
2022-09-25T04:54:48.081Z,75.95
2022-09-25T04:55:24.575Z,75.87
2022-09-25T04:56:12.263Z,75.96
2022-09-25T04:56:48.102Z,76.01
2022-09-25T04:57:53.376Z,76.00
2022-09-25T04:58:16.553Z,76.05
2022-09-25T04:58:50.534Z,75.99
2022-09-25T04:59:23.780Z,76.00
2022-09-25T04:59:57.862Z,76.13
2022-09-25T05:00:32.721Z,76.14
2022-09-25T05:01:09.245Z,76.09
2022-09-25T05:01:43.785Z,76.09
2022-09-25T05:02:17.517Z,76.07
2022-09-25T05:02:50.938Z,76.16
2022-09-25T05:03:24.390Z,76.05
2022-09-25T05:03:57.705Z,76.19
2022-09-25T05:04:31.255Z,76.07
2022-09-25T05:05:04.653Z,76.08
2022-09-25T05:05:38.305Z,76.10
2022-09-25T05:06:11.624Z,76.03
2022-09-25T05:06:44.874Z,76.05
2022-09-25T05:07:18.124Z,76.13
2022-09-25T05:07:56.141Z,76.25
2022-09-25T05:08:29.387Z,76.13
2022-09-25T05:09:03.497Z,76.24
2022-09-25T05:09:37.403Z,76.25
2022-09-25T05:10:10.671Z,76.28
2022-09-25T05:10:44.459Z,76.25
2022-09-25T05:11:17.656Z,76.21
2022-09-25T05:11:51.353Z,76.23
2022-09-25T05:12:24.703Z,76.33
2022-09-25T05:12:59.591Z,76.18
2022-09-25T05:13:32.794Z,76.31
2022-09-25T05:14:06.110Z,76.30
2022-09-25T05:14:41.368Z,76.23
2022-09-25T05:15:15.265Z,76.27
2022-09-25T05:15:48.686Z,76.29
2022-09-25T05:16:22.177Z,76.21
2022-09-25T05:16:55.360Z,76.15
2022-09-25T05:17:28.573Z,76.06
2022-09-25T05:18:07.494Z,76.16
2022-09-25T05:18:40.585Z,76.17
2022-09-25T05:19:14.392Z,76.29
2022-09-25T05:19:47.498Z,76.25
2022-09-25T05:20:20.634Z,76.34
2022-09-25T05:20:54.532Z,76.30
2022-09-25T05:21:27.721Z,76.40
2022-09-25T05:22:01.325Z,76.47
2022-09-25T05:22:34.708Z,76.42
2022-09-25T05:23:07.927Z,76.52
2022-09-25T05:23:41.015Z,76.55
2022-09-25T05:24:14.463Z,76.56
2022-09-25T05:24:47.565Z,76.34
2022-09-25T05:25:23.630Z,76.46
2022-09-25T05:26:03.982Z,76.48
2022-09-25T05:26:38.231Z,76.53
2022-09-25T05:27:12.821Z,76.50
2022-09-25T05:27:46.077Z,76.50
2022-09-25T05:28:19.493Z,76.54
2022-09-25T05:28:52.790Z,76.46
2022-09-25T05:29:25.955Z,76.44
2022-09-25T05:29:59.055Z,76.46
2022-09-25T05:30:33.923Z,76.61
2022-09-25T05:31:07.244Z,76.58
2022-09-25T05:31:42.939Z,76.48
2022-09-25T05:32:17.636Z,76.60
2022-09-25T05:32:52.214Z,76.64
2022-09-25T05:33:25.461Z,76.52
2022-09-25T05:33:58.935Z,76.64
2022-09-25T05:34:32.135Z,76.64
2022-09-25T05:35:06.566Z,76.73
2022-09-25T05:35:39.707Z,76.61
2022-09-25T05:36:13.040Z,76.69
2022-09-25T05:36:46.337Z,76.76
2022-09-25T05:37:20.589Z,76.75
2022-09-25T05:37:54.381Z,76.83
2022-09-25T05:38:29.326Z,76.75
2022-09-25T05:39:02.544Z,76.71
2022-09-25T05:39:35.864Z,76.81
2022-09-25T05:40:09.796Z,76.71
2022-09-25T05:40:43.622Z,76.70
2022-09-25T05:41:17.460Z,76.66
2022-09-25T05:41:51.597Z,76.81
2022-09-25T05:42:25.646Z,76.72
2022-09-25T05:43:00.398Z,76.91
2022-09-25T05:43:36.100Z,76.88
2022-09-25T05:44:10.683Z,76.90
2022-09-25T05:44:44.827Z,76.96
2022-09-25T05:45:20.369Z,76.93
2022-09-25T05:45:55.214Z,77.01
2022-09-25T05:46:28.568Z,76.92
2022-09-25T05:47:03.254Z,77.04
2022-09-25T05:47:36.450Z,76.86
2022-09-25T05:48:10.045Z,77.08
2022-09-25T05:48:43.388Z,76.97
2022-09-25T05:49:16.634Z,77.14
2022-09-25T05:49:49.891Z,77.11
2022-09-25T05:50:23.198Z,77.09
2022-09-25T05:50:57.850Z,77.10
2022-09-25T05:51:31.841Z,76.95
2022-09-25T05:52:05.062Z,77.05
2022-09-25T05:52:38.750Z,77.09
2022-09-25T05:53:11.822Z,77.07
2022-09-25T05:53:44.937Z,76.99
2022-09-25T05:54:18.149Z,77.06
2022-09-25T05:54:51.244Z,77.10
2022-09-25T05:55:24.860Z,76.99
2022-09-25T05:56:01.251Z,77.03
2022-09-25T05:56:34.283Z,77.06
2022-09-25T05:57:07.574Z,77.09
2022-09-25T05:57:40.690Z,77.19
2022-09-25T05:58:13.884Z,77.29
2022-09-25T05:58:48.661Z,77.27
2022-09-25T05:59:21.741Z,77.06
2022-09-25T05:59:54.973Z,77.30
2022-09-25T06:00:28.430Z,77.42
2022-09-25T06:01:04.061Z,77.13
2022-09-25T06:01:37.384Z,77.23
2022-09-25T06:02:13.482Z,77.16
2022-09-25T06:02:51.997Z,77.34
2022-09-25T06:03:28.835Z,77.48
2022-09-25T06:04:02.106Z,77.24
2022-09-25T06:04:35.303Z,77.35
2022-09-25T06:05:09.331Z,77.33
2022-09-25T06:05:42.967Z,77.37
2022-09-25T06:06:16.278Z,77.32
2022-09-25T06:06:49.698Z,77.43
2022-09-25T06:07:22.970Z,77.61
2022-09-25T06:07:56.413Z,77.60
2022-09-25T06:08:33.253Z,77.38
2022-09-25T06:09:06.449Z,77.69
2022-09-25T06:09:39.585Z,77.69
2022-09-25T06:10:12.738Z,77.57
2022-09-25T06:10:54.024Z,77.53
2022-09-25T06:11:27.483Z,77.73
2022-09-25T06:12:00.754Z,77.79
2022-09-25T06:12:34.012Z,77.78
2022-09-25T06:13:08.601Z,77.78
2022-09-25T06:13:49.548Z,77.79
2022-09-25T06:14:25.221Z,77.71
2022-09-25T06:14:58.568Z,77.97
2022-09-25T06:15:40.594Z,77.96
2022-09-25T06:16:18.798Z,77.96
2022-09-25T06:16:52.684Z,77.98
2022-09-25T06:17:25.877Z,77.94
2022-09-25T06:17:59.462Z,77.84
2022-09-25T06:18:34.089Z,78.02
2022-09-25T06:19:07.596Z,77.99
2022-09-25T06:19:40.904Z,78.04
2022-09-25T06:20:16.248Z,77.94
2022-09-25T06:20:50.626Z,77.88
2022-09-25T06:21:24.341Z,78.10
2022-09-25T06:22:00.651Z,77.87
2022-09-25T06:22:33.997Z,78.09
2022-09-25T06:23:07.226Z,77.87
2022-09-25T06:23:43.541Z,78.01
2022-09-25T06:24:16.634Z,77.80
2022-09-25T06:24:49.895Z,77.80
2022-09-25T06:25:25.541Z,77.64
2022-09-25T06:26:09.736Z,77.92
2022-09-25T06:26:43.766Z,77.53
2022-09-25T06:27:16.935Z,77.55
2022-09-25T06:27:54.749Z,77.52
2022-09-25T06:28:28.884Z,77.64
2022-09-25T06:29:03.330Z,77.52
2022-09-25T06:29:36.813Z,77.54
2022-09-25T06:30:10.355Z,77.66
2022-09-25T06:30:43.519Z,77.53
2022-09-25T06:31:16.752Z,77.69
2022-09-25T06:31:50.763Z,77.56
2022-09-25T06:32:23.930Z,77.59
2022-09-25T06:32:58.543Z,77.60
2022-09-25T06:33:32.589Z,77.64
2022-09-25T06:34:06.341Z,77.50
2022-09-25T06:34:39.620Z,77.51
2022-09-25T06:35:12.818Z,77.49
2022-09-25T06:35:48.862Z,77.54
2022-09-25T06:36:23.172Z,77.56
2022-09-25T06:36:56.479Z,77.47
2022-09-25T06:37:29.771Z,77.46
2022-09-25T06:38:04.997Z,77.41
2022-09-25T06:38:38.215Z,77.58
2022-09-25T06:39:11.467Z,77.41
2022-09-25T06:39:44.649Z,77.46
2022-09-25T06:40:18.086Z,77.45
2022-09-25T06:40:51.350Z,77.60
2022-09-25T06:41:25.174Z,77.49
2022-09-25T06:41:58.371Z,77.29
2022-09-25T06:42:31.821Z,77.49
2022-09-25T06:43:06.189Z,77.28
2022-09-25T06:43:39.725Z,77.37
2022-09-25T06:44:13.079Z,77.34
2022-09-25T06:44:46.330Z,77.38
2022-09-25T06:45:19.633Z,77.56
2022-09-25T06:45:52.921Z,77.68
2022-09-25T06:46:26.269Z,77.61
2022-09-25T06:47:00.175Z,77.62
2022-09-25T06:47:33.645Z,77.62
2022-09-25T06:48:11.208Z,77.61
2022-09-25T06:48:45.142Z,77.52
2022-09-25T06:49:18.194Z,77.54
2022-09-25T06:49:51.282Z,77.36
2022-09-25T06:50:31.947Z,77.51
2022-09-25T06:51:05.401Z,77.45
2022-09-25T06:51:39.644Z,77.57
2022-09-25T06:52:12.949Z,77.34
2022-09-25T06:52:46.050Z,77.22
2022-09-25T06:53:21.174Z,77.20
2022-09-25T06:53:54.792Z,77.30
2022-09-25T06:54:32.026Z,77.16
2022-09-25T06:55:05.644Z,77.07
2022-09-25T06:55:39.406Z,77.08
2022-09-25T06:56:12.724Z,77.04
2022-09-25T06:56:50.263Z,77.05
2022-09-25T06:57:23.489Z,76.86
2022-09-25T06:57:56.779Z,76.91
2022-09-25T06:58:30.966Z,76.76
2022-09-25T06:59:05.571Z,76.77
2022-09-25T06:59:39.586Z,76.68
2022-09-25T07:00:13.196Z,76.55
2022-09-25T07:00:51.206Z,76.51
2022-09-25T07:01:24.736Z,76.33
2022-09-25T07:02:17.972Z,76.30
2022-09-25T07:03:10.242Z,76.34
2022-09-25T07:03:46.560Z,76.32
2022-09-25T07:04:19.937Z,76.19
2022-09-25T07:04:53.183Z,76.18
2022-09-25T07:05:26.375Z,75.92
2022-09-25T07:06:04.739Z,75.96
2022-09-25T07:06:38.176Z,75.87
2022-09-25T07:07:11.479Z,75.89
2022-09-25T07:07:45.366Z,75.72
2022-09-25T07:08:21.242Z,75.75
2022-09-25T07:08:57.253Z,75.68
2022-09-25T07:09:30.525Z,75.68
2022-09-25T07:10:04.053Z,75.51
2022-09-25T07:10:37.278Z,75.39
2022-09-25T07:11:14.290Z,75.21
2022-09-25T07:11:48.972Z,75.12
2022-09-25T07:12:22.192Z,74.99
2022-09-25T07:12:55.388Z,74.90
2022-09-25T07:13:33.094Z,74.72
2022-09-25T07:14:06.318Z,74.79
2022-09-25T07:14:39.641Z,74.57
2022-09-25T07:15:12.903Z,74.59
2022-09-25T07:16:06.743Z,74.37
2022-09-25T07:16:40.052Z,74.18
2022-09-25T07:17:14.460Z,74.21
2022-09-25T07:17:47.744Z,74.08
2022-09-25T07:18:23.286Z,74.05
2022-09-25T07:19:03.584Z,73.92
2022-09-25T07:19:36.809Z,74.04
2022-09-25T07:20:13.000Z,74.01
2022-09-25T07:20:47.209Z,74.09
2022-09-25T07:21:23.014Z,74.01
2022-09-25T07:21:56.830Z,74.05
2022-09-25T07:22:30.373Z,74.05
2022-09-25T07:23:04.404Z,74.06
2022-09-25T07:23:38.296Z,74.02
2022-09-25T07:24:11.768Z,73.96
2022-09-25T07:24:45.347Z,73.89
2022-09-25T07:25:18.684Z,73.73
2022-09-25T07:25:51.914Z,73.61
2022-09-25T07:26:27.562Z,73.46
2022-09-25T07:27:00.917Z,73.38
2022-09-25T07:27:35.379Z,73.23
2022-09-25T07:28:08.579Z,73.07
2022-09-25T07:28:44.219Z,72.92
2022-09-25T07:29:17.338Z,72.85
2022-09-25T07:29:52.116Z,72.76
2022-09-25T07:30:28.662Z,72.47
2022-09-25T07:31:17.830Z,72.48
2022-09-25T07:31:51.210Z,72.45
2022-09-25T07:32:24.426Z,72.28
2022-09-25T07:33:00.202Z,72.36
2022-09-25T07:33:33.628Z,72.17
2022-09-25T07:34:09.773Z,72.16
2022-09-25T07:34:44.065Z,72.08
2022-09-25T07:35:18.803Z,71.92
2022-09-25T07:35:54.898Z,71.95
2022-09-25T07:36:29.248Z,71.97
2022-09-25T07:37:02.514Z,71.98
2022-09-25T07:37:35.662Z,71.96
2022-09-25T07:38:08.759Z,71.76
2022-09-25T07:38:42.385Z,71.79
2022-09-25T07:39:18.494Z,71.80
2022-09-25T07:39:52.002Z,71.64
2022-09-25T07:40:29.216Z,71.59
2022-09-25T07:41:02.354Z,71.69
2022-09-25T07:41:37.943Z,71.54
2022-09-25T07:42:11.693Z,71.64
2022-09-25T07:42:44.848Z,71.52
2022-09-25T07:43:17.945Z,71.60
2022-09-25T07:44:40.173Z,71.55
2022-09-25T07:44:51.571Z,71.63
2022-09-25T07:45:25.129Z,71.37
2022-09-25T07:45:58.399Z,71.26
2022-09-25T07:46:32.423Z,71.17
2022-09-25T07:47:07.481Z,71.19
2022-09-25T07:47:40.733Z,71.12
2022-09-25T07:48:14.831Z,71.08
2022-09-25T07:48:51.766Z,71.07
2022-09-25T07:49:24.974Z,71.08
2022-09-25T07:49:58.951Z,71.05
2022-09-25T07:50:33.878Z,71.05
2022-09-25T07:51:09.502Z,70.95
2022-09-25T07:51:42.783Z,70.98
2022-09-25T07:52:16.016Z,70.98
2022-09-25T07:52:49.326Z,71.01